createdAt,value
2019-06-07T00:00:41.744Z,11.57
2019-06-07T00:03:15.793Z,7.87
2019-06-07T00:05:40.274Z,7.80
2019-06-07T00:08:17.116Z,7.13
2019-06-07T00:10:39.099Z,9.97
2019-06-07T00:13:07.562Z,9.33
2019-06-07T00:15:36.015Z,11.43
2019-06-07T00:18:04.456Z,8.90
2019-06-07T00:20:32.858Z,8.03
2019-06-07T00:23:01.286Z,8.53
2019-06-07T00:25:29.682Z,7.67
2019-06-07T00:27:58.082Z,9.77
2019-06-07T00:30:41.292Z,8.40
2019-06-07T00:32:56.718Z,9.70
2019-06-07T00:35:25.129Z,10.63
2019-06-07T00:37:53.561Z,9.77
2019-06-07T00:40:31.123Z,9.60
2019-06-07T00:42:52.087Z,8.93
2019-06-07T00:45:22.443Z,8.60
2019-06-07T00:47:50.730Z,9.67
2019-06-07T00:50:23.532Z,9.37
2019-06-07T00:55:23.435Z,10.13
2019-06-07T00:57:51.118Z,9.63
2019-06-07T01:00:23.587Z,10.90
2019-06-07T01:02:50.634Z,10.20
2019-06-07T01:05:22.534Z,10.70
2019-06-07T01:07:49.271Z,9.40
2019-06-07T01:10:46.272Z,10.90
2019-06-07T01:12:48.557Z,12.30
2019-06-07T01:15:20.573Z,10.93
2019-06-07T01:18:33.009Z,11.47
2019-06-07T01:20:22.282Z,10.40
2019-06-07T01:22:49.452Z,10.63
2019-06-07T01:25:18.969Z,10.67
2019-06-07T01:27:48.207Z,12.83
2019-06-07T01:30:18.845Z,11.83
2019-06-07T01:32:47.359Z,12.00
2019-06-07T01:35:16.580Z,11.17
2019-06-07T01:37:45.037Z,11.27
2019-06-07T01:40:14.108Z,11.60
2019-06-07T01:42:42.480Z,12.17
2019-06-07T01:45:11.947Z,11.77
2019-06-07T01:47:40.406Z,14.97
2019-06-07T01:50:10.879Z,11.03
2019-06-07T01:52:39.356Z,11.30
2019-06-07T01:55:08.098Z,12.23
2019-06-07T01:57:47.322Z,11.17
2019-06-07T02:00:07.846Z,15.30
2019-06-07T02:02:36.242Z,12.70
2019-06-07T02:05:06.548Z,30.40
2019-06-07T02:07:35.349Z,64.30
2019-06-07T02:10:05.999Z,28.27
2019-06-07T02:12:42.760Z,21.67
2019-06-07T02:15:07.614Z,13.20
2019-06-07T02:17:36.074Z,13.47
2019-06-07T02:20:06.717Z,12.00
2019-06-07T02:22:35.241Z,10.57
2019-06-07T02:25:35.148Z,10.67
2019-06-07T02:27:34.524Z,11.07
2019-06-07T02:30:35.252Z,11.07
2019-06-07T02:32:36.715Z,11.40
2019-06-07T02:35:05.272Z,10.70
2019-06-07T02:37:36.763Z,11.50
2019-06-07T02:40:08.795Z,11.53
2019-06-07T02:42:41.879Z,13.10
2019-06-07T02:45:10.890Z,15.10
2019-06-07T02:47:39.707Z,11.50
2019-06-07T02:50:12.062Z,12.60
2019-06-07T02:52:41.738Z,10.33
2019-06-07T02:55:14.830Z,11.53
2019-06-07T02:57:43.448Z,10.70
2019-06-07T03:00:42.255Z,11.57
2019-06-07T03:02:45.192Z,11.20
2019-06-07T03:05:13.933Z,11.97
2019-06-07T03:07:44.992Z,10.90
2019-06-07T03:10:13.308Z,12.27
2019-06-07T03:12:45.222Z,12.50
2019-06-07T03:15:32.037Z,11.57
2019-06-07T03:18:04.049Z,13.80
2019-06-07T03:20:36.276Z,12.63
2019-06-07T03:23:05.126Z,13.43
2019-06-07T03:25:39.122Z,11.37
2019-06-07T03:28:07.771Z,11.63
2019-06-07T03:30:48.262Z,13.10
2019-06-07T03:33:06.383Z,12.27
2019-06-07T03:35:37.342Z,11.87
2019-06-07T03:38:05.216Z,11.33
2019-06-07T03:40:36.760Z,11.60
2019-06-07T03:43:03.778Z,10.80
2019-06-07T03:45:33.245Z,12.37
2019-06-07T03:48:02.313Z,11.20
2019-06-07T03:50:33.446Z,10.33
2019-06-07T03:53:00.876Z,11.10
2019-06-07T03:55:30.375Z,12.83
2019-06-07T03:58:30.742Z,12.83
2019-06-07T04:00:32.964Z,12.03
2019-06-07T04:02:59.699Z,15.77
2019-06-07T04:05:29.606Z,12.17
2019-06-07T04:07:58.376Z,10.77
2019-06-07T04:10:44.838Z,11.33
2019-06-07T04:12:56.956Z,10.03
2019-06-07T04:15:25.367Z,11.23
2019-06-07T04:18:02.091Z,12.07
2019-06-07T04:20:23.972Z,11.40
2019-06-07T04:22:52.377Z,10.60
2019-06-07T04:25:20.788Z,10.00
2019-06-07T04:27:49.212Z,13.20
2019-06-07T04:30:39.551Z,13.83
2019-06-07T04:33:09.728Z,12.47
2019-06-07T04:35:42.545Z,10.30
2019-06-07T04:38:11.310Z,12.17
2019-06-07T04:40:42.939Z,10.47
2019-06-07T04:43:21.578Z,12.53
2019-06-07T04:45:51.705Z,10.50
2019-06-07T04:48:21.510Z,13.07
2019-06-07T04:50:51.040Z,9.33
2019-06-07T04:53:20.993Z,10.37
2019-06-07T04:55:49.421Z,10.87
2019-06-07T04:58:17.797Z,11.93
2019-06-07T05:00:52.814Z,11.30
2019-06-07T05:03:16.353Z,14.17
2019-06-07T05:05:44.824Z,10.77
2019-06-07T05:08:27.511Z,10.50
2019-06-07T05:10:44.174Z,11.20
2019-06-07T05:13:12.766Z,9.87
2019-06-07T05:15:42.377Z,10.93
2019-06-07T05:18:10.946Z,9.03
2019-06-07T05:20:41.595Z,10.07
2019-06-07T05:23:09.593Z,10.27
2019-06-07T05:25:42.214Z,11.23
2019-06-07T05:28:08.186Z,10.10
2019-06-07T05:33:09.809Z,9.83
2019-06-07T05:35:41.692Z,9.73
2019-06-07T05:38:09.710Z,9.07
2019-06-07T05:40:48.381Z,9.03
2019-06-07T05:43:25.430Z,10.03
2019-06-07T05:45:53.906Z,9.90
2019-06-07T05:48:22.748Z,10.23
2019-06-07T05:50:56.911Z,8.10
2019-06-07T05:53:21.656Z,10.37
2019-06-07T05:55:49.989Z,9.10
2019-06-07T05:58:18.961Z,10.73
2019-06-07T06:00:47.909Z,11.37
2019-06-07T06:03:16.629Z,12.87
2019-06-07T06:05:53.863Z,9.23
2019-06-07T06:08:15.284Z,11.60
2019-06-07T06:10:48.324Z,10.83
2019-06-07T06:13:13.812Z,9.50
2019-06-07T06:15:56.308Z,9.67
2019-06-07T06:18:12.800Z,9.43
2019-06-07T06:21:05.291Z,10.43
2019-06-07T06:23:11.440Z,8.90
2019-06-07T06:25:42.664Z,10.53
2019-06-07T06:28:13.097Z,10.23
2019-06-07T06:30:47.006Z,11.40
2019-06-07T06:33:30.466Z,10.80
2019-06-07T06:35:43.063Z,9.90
2019-06-07T06:38:12.655Z,9.93
2019-06-07T06:40:45.030Z,7.63
2019-06-07T06:43:11.206Z,10.10
2019-06-07T06:45:40.134Z,10.37
2019-06-07T06:48:08.602Z,7.53
2019-06-07T06:50:38.601Z,11.03
2019-06-07T06:53:07.611Z,8.70
2019-06-07T06:55:36.221Z,9.50
2019-06-07T06:58:04.810Z,10.57
2019-06-07T07:00:53.765Z,7.53
2019-06-07T07:05:49.781Z,9.67
2019-06-07T07:08:16.533Z,9.60
2019-06-07T07:10:48.636Z,9.50
2019-06-07T07:13:16.467Z,12.43
2019-06-07T07:15:47.252Z,8.90
2019-06-07T07:18:14.982Z,10.03
2019-06-07T07:20:45.268Z,9.20
2019-06-07T07:23:13.585Z,7.53
2019-06-07T07:25:43.501Z,7.13
2019-06-07T07:28:12.579Z,7.60
2019-06-07T07:30:57.183Z,8.10
2019-06-07T07:33:25.597Z,8.53
2019-06-07T07:36:15.807Z,6.33
2019-06-07T07:38:24.159Z,5.17
2019-06-07T07:41:06.933Z,5.70
2019-06-07T07:43:23.016Z,9.73
2019-06-07T07:45:59.168Z,5.40
2019-06-07T07:48:21.599Z,5.30
2019-06-07T07:50:54.573Z,7.13
2019-06-07T07:53:20.324Z,13.23
2019-06-07T07:55:50.409Z,9.50
2019-06-07T07:58:18.836Z,28.47
2019-06-07T08:00:59.066Z,12.73
2019-06-07T08:03:17.474Z,16.13
2019-06-07T08:05:47.253Z,10.93
2019-06-07T08:08:16.168Z,7.70
2019-06-07T08:10:44.630Z,7.23
2019-06-07T08:13:24.674Z,7.57
2019-06-07T08:15:43.346Z,6.07
2019-06-07T08:18:11.743Z,5.93
2019-06-07T08:20:40.172Z,7.30
2019-06-07T08:23:08.787Z,6.57
2019-06-07T08:25:37.183Z,6.03
2019-06-07T08:28:05.642Z,7.57
2019-06-07T08:30:49.846Z,6.93
2019-06-07T08:33:24.677Z,5.70
2019-06-07T08:40:34.971Z,9.10
2019-06-07T08:43:18.459Z,6.23
2019-06-07T08:45:33.473Z,6.80
2019-06-07T08:48:13.037Z,6.37
2019-06-07T08:50:31.993Z,5.57
2019-06-07T08:53:11.221Z,8.83
2019-06-07T08:55:30.617Z,7.43
2019-06-07T08:58:04.141Z,5.87
2019-06-07T09:00:45.466Z,6.70
2019-06-07T09:03:05.073Z,5.60
2019-06-07T09:05:30.962Z,5.90
2019-06-07T09:08:25.979Z,4.57
2019-06-07T09:10:29.505Z,6.03
2019-06-07T09:13:03.003Z,6.37
2019-06-07T09:15:28.070Z,4.33
2019-06-07T09:18:35.351Z,6.57
2019-06-07T09:20:36.858Z,4.97
2019-06-07T09:23:06.722Z,5.23
2019-06-07T09:25:30.098Z,5.50
2019-06-07T09:28:06.717Z,8.93
2019-06-07T09:30:40.934Z,6.17
2019-06-07T09:33:10.736Z,5.37
2019-06-07T09:35:39.861Z,4.93
2019-06-07T09:38:23.418Z,5.37
2019-06-07T09:40:38.856Z,5.33
2019-06-07T09:43:54.286Z,4.80
2019-06-07T09:45:37.743Z,4.63
2019-06-07T09:48:13.728Z,5.43
2019-06-07T09:50:36.389Z,4.20
2019-06-07T09:53:13.965Z,4.60
2019-06-07T09:55:35.529Z,5.23
2019-06-07T09:58:45.385Z,4.47
2019-06-07T10:00:40.565Z,3.80
2019-06-07T10:03:16.826Z,4.37
2019-06-07T10:05:34.989Z,3.27
2019-06-07T10:08:21.829Z,4.07
2019-06-07T10:13:03.786Z,4.87
2019-06-07T10:15:32.571Z,4.57
2019-06-07T10:18:00.960Z,4.23
2019-06-07T10:20:29.370Z,4.23
2019-06-07T10:22:59.393Z,4.47
2019-06-07T10:25:28.055Z,5.00
2019-06-07T10:27:56.464Z,4.33
2019-06-07T10:30:25.227Z,3.70
2019-06-07T10:32:53.698Z,4.23
2019-06-07T10:35:22.101Z,3.50
2019-06-07T10:37:50.564Z,4.67
2019-06-07T10:40:20.190Z,6.50
2019-06-07T10:42:48.592Z,3.63
2019-06-07T10:45:17.078Z,3.67
2019-06-07T10:47:45.471Z,4.17
2019-06-07T10:50:15.707Z,4.03
2019-06-07T10:52:44.129Z,10.03
2019-06-07T10:55:13.049Z,4.53
2019-06-07T10:57:41.453Z,4.20
2019-06-07T11:00:11.770Z,4.07
2019-06-07T11:02:40.224Z,4.13
2019-06-07T11:05:10.078Z,6.37
2019-06-07T11:07:38.661Z,5.27
2019-06-07T11:10:13.329Z,7.30
2019-06-07T11:12:37.720Z,15.77
2019-06-07T11:15:08.831Z,6.20
2019-06-07T11:17:37.354Z,4.67
2019-06-07T11:20:08.308Z,5.57
2019-06-07T11:22:36.878Z,3.07
2019-06-07T11:25:07.792Z,5.83
2019-06-07T11:27:36.339Z,5.23
2019-06-07T11:30:08.503Z,3.20
2019-06-07T11:32:36.952Z,3.80
2019-06-07T11:35:11.496Z,4.63
2019-06-07T11:37:39.568Z,3.50
2019-06-07T11:40:27.945Z,5.73
2019-06-07T11:42:41.004Z,4.03
2019-06-07T11:45:10.677Z,3.67
2019-06-07T11:47:40.322Z,5.13
2019-06-07T11:50:09.574Z,3.70
2019-06-07T11:52:39.250Z,4.23
2019-06-07T11:55:09.307Z,4.03
2019-06-07T11:57:38.250Z,3.47
2019-06-07T12:00:11.634Z,3.23
2019-06-07T12:02:40.143Z,3.30
2019-06-07T12:05:10.417Z,4.33
2019-06-07T12:07:39.305Z,3.13
2019-06-07T12:10:10.653Z,5.10
2019-06-07T12:12:39.287Z,4.03
2019-06-07T12:15:08.903Z,4.00
2019-06-07T12:17:37.632Z,3.33
2019-06-07T12:20:08.798Z,4.80
2019-06-07T12:22:37.757Z,4.07
2019-06-07T12:25:10.387Z,4.83
2019-06-07T12:27:39.439Z,6.93
2019-06-07T12:30:16.751Z,4.67
2019-06-07T12:32:39.328Z,4.67
2019-06-07T12:35:08.451Z,3.57
2019-06-07T12:37:43.675Z,6.40
2019-06-07T12:40:08.263Z,4.33
2019-06-07T12:42:36.925Z,5.23
2019-06-07T12:45:08.890Z,4.37
2019-06-07T12:47:37.283Z,3.60
2019-06-07T12:50:07.626Z,4.90
2019-06-07T12:52:37.427Z,4.67
2019-06-07T12:55:07.357Z,4.47
2019-06-07T12:57:35.764Z,3.80
2019-06-07T13:00:07.615Z,3.50
2019-06-07T13:02:36.009Z,4.53
2019-06-07T13:05:09.581Z,3.73
2019-06-07T13:07:38.081Z,5.23
2019-06-07T13:10:07.825Z,4.00
2019-06-07T13:12:36.229Z,4.00
2019-06-07T13:15:06.375Z,33.90
2019-06-07T13:17:34.872Z,7.13
2019-06-07T13:20:04.265Z,5.23
2019-06-07T13:22:32.677Z,5.40
2019-06-07T13:25:01.075Z,4.10
2019-06-07T13:27:33.400Z,4.07
2019-06-07T13:29:59.795Z,7.67
2019-06-07T13:32:28.271Z,3.53
2019-06-07T13:34:56.663Z,4.80
2019-06-07T13:37:25.480Z,3.50
2019-06-07T13:39:54.022Z,3.67
2019-06-07T13:42:22.828Z,3.47
2019-06-07T13:44:51.496Z,5.47
2019-06-07T13:47:21.079Z,4.10
2019-06-07T13:49:49.697Z,3.90
2019-06-07T13:52:18.135Z,3.63
2019-06-07T13:54:46.529Z,4.27
2019-06-07T13:57:14.925Z,5.67
2019-06-07T13:59:43.566Z,3.97
2019-06-07T14:02:12.063Z,5.00
2019-06-07T14:04:40.465Z,3.47
2019-06-07T14:07:08.886Z,4.30
2019-06-07T14:09:37.489Z,8.13
2019-06-07T14:12:05.893Z,3.97
2019-06-07T14:14:34.320Z,3.30
2019-06-07T14:17:02.754Z,3.60
2019-06-07T14:19:31.139Z,3.37
2019-06-07T14:21:59.817Z,3.23
2019-06-07T14:24:29.171Z,3.00
2019-06-07T14:27:06.645Z,3.17
2019-06-07T14:29:37.275Z,3.25
2019-06-07T14:32:07.023Z,4.12
2019-06-07T14:34:35.799Z,5.00
2019-06-07T14:37:05.513Z,2.90
2019-06-07T14:39:33.985Z,3.85
2019-06-07T14:42:09.248Z,4.78
2019-06-07T14:44:33.877Z,5.28
2019-06-07T14:47:02.502Z,3.20
2019-06-07T14:49:32.754Z,4.58
2019-06-07T14:52:01.294Z,3.75
2019-06-07T14:54:32.276Z,4.20
2019-06-07T14:57:03.051Z,3.40
2019-06-07T14:59:30.450Z,3.58
2019-06-07T15:01:59.080Z,4.28
2019-06-07T15:04:28.641Z,3.90
2019-06-07T15:06:57.133Z,3.90
2019-06-07T15:09:26.866Z,3.50
2019-06-07T15:11:55.938Z,3.12
2019-06-07T15:14:24.337Z,3.02
2019-06-07T15:16:52.741Z,5.30
2019-06-07T15:19:23.955Z,13.45
2019-06-07T15:21:51.329Z,4.85
2019-06-07T15:24:19.731Z,2.85
2019-06-07T15:26:48.175Z,3.50
2019-06-07T15:29:16.610Z,3.12
2019-06-07T15:31:45.046Z,4.35
2019-06-07T15:34:15.081Z,3.10
2019-06-07T15:36:43.477Z,3.12
2019-06-07T15:39:11.877Z,5.20
2019-06-07T15:41:40.329Z,4.17
2019-06-07T15:44:08.724Z,2.87
2019-06-07T15:46:38.033Z,5.97
2019-06-07T15:49:06.833Z,8.15
2019-06-07T15:51:36.786Z,3.20
2019-06-07T15:54:05.610Z,2.92
2019-06-07T15:56:34.711Z,3.42
2019-06-07T15:59:03.162Z,4.80
2019-06-07T16:01:31.552Z,4.80
2019-06-07T16:03:59.978Z,4.30
2019-06-07T16:06:28.381Z,5.08
2019-06-07T16:08:56.812Z,3.30
2019-06-07T16:11:25.250Z,3.33
2019-06-07T16:13:53.645Z,4.15
2019-06-07T16:16:22.049Z,4.05
2019-06-07T16:18:52.584Z,3.62
2019-06-07T16:21:20.993Z,3.65
2019-06-07T16:23:49.394Z,5.22
2019-06-07T16:26:17.825Z,3.67
2019-06-07T16:28:46.220Z,5.20
2019-06-07T16:31:14.632Z,3.87
2019-06-07T16:33:43.276Z,4.20
2019-06-07T16:36:11.709Z,4.50
2019-06-07T16:38:40.202Z,4.20
2019-06-07T16:41:08.616Z,3.40
2019-06-07T16:43:38.456Z,5.00
2019-06-07T16:46:07.058Z,4.75
2019-06-07T16:48:36.798Z,4.78
2019-06-07T16:51:05.412Z,4.05
2019-06-07T16:53:33.806Z,3.67
2019-06-07T16:56:02.340Z,3.90
2019-06-07T16:58:30.922Z,4.15
2019-06-07T17:00:59.349Z,3.50
2019-06-07T17:03:27.774Z,3.98
2019-06-07T17:05:58.521Z,4.47
2019-06-07T17:08:26.923Z,3.55
2019-06-07T17:10:55.496Z,4.53
2019-06-07T17:13:32.828Z,3.58
2019-06-07T17:15:54.010Z,3.10
2019-06-07T17:18:22.515Z,4.70
2019-06-07T17:20:50.913Z,3.40
2019-06-07T17:23:19.309Z,3.27
2019-06-07T17:25:47.797Z,3.40
2019-06-07T17:28:16.281Z,4.47
2019-06-07T17:30:46.010Z,3.42
2019-06-07T17:33:14.627Z,4.75
2019-06-07T17:35:44.619Z,3.92
2019-06-07T17:38:13.188Z,4.90
2019-06-07T17:40:42.740Z,4.08
2019-06-07T17:43:11.284Z,3.72
2019-06-07T17:45:41.148Z,3.33
2019-06-07T17:48:10.027Z,4.55
2019-06-07T17:50:38.386Z,3.65
2019-06-07T17:53:06.783Z,4.12
2019-06-07T17:55:35.319Z,4.22
2019-06-07T17:58:03.677Z,3.47
2019-06-07T18:00:53.107Z,5.23
2019-06-07T18:03:21.761Z,4.37
2019-06-07T18:05:51.404Z,5.23
2019-06-07T18:08:20.245Z,4.00
2019-06-07T18:10:50.059Z,3.73
2019-06-07T18:13:18.563Z,4.10
2019-06-07T18:15:52.948Z,3.83
2019-06-07T18:18:21.069Z,7.27
2019-06-07T18:20:49.471Z,5.83
2019-06-07T18:23:17.993Z,4.63
2019-06-07T18:25:46.530Z,7.73
2019-06-07T18:28:14.965Z,9.83
2019-06-07T18:30:43.617Z,7.60
2019-06-07T18:33:12.020Z,11.67
2019-06-07T18:35:40.431Z,8.23
2019-06-07T18:38:10.938Z,8.87
2019-06-07T18:40:39.494Z,16.43
2019-06-07T18:43:07.961Z,14.63
2019-06-07T18:45:36.672Z,12.43
2019-06-07T18:48:05.837Z,13.07
2019-06-07T18:50:34.802Z,8.00
2019-06-07T18:53:03.325Z,16.37
2019-06-07T18:55:31.741Z,10.13
2019-06-07T18:58:00.144Z,10.00
2019-06-07T19:00:29.310Z,8.20
2019-06-07T19:02:58.123Z,10.87
2019-06-07T19:05:26.954Z,9.40
2019-06-07T19:07:56.589Z,9.83
2019-06-07T19:10:25.439Z,9.07
2019-06-07T19:12:55.283Z,11.50
2019-06-07T19:15:25.803Z,14.77
2019-06-07T19:17:54.277Z,13.17
2019-06-07T19:20:23.428Z,13.23
2019-06-07T19:22:52.106Z,14.10
2019-06-07T19:25:20.734Z,7.60
2019-06-07T19:27:50.524Z,23.43
2019-06-07T19:30:20.828Z,16.13
2019-06-07T19:32:50.143Z,8.00
2019-06-07T19:35:20.139Z,4.80
2019-06-07T19:37:48.572Z,8.03
2019-06-07T19:40:17.533Z,6.27
2019-06-07T19:42:45.907Z,7.43
2019-06-07T19:45:31.630Z,4.97
2019-06-07T19:47:45.372Z,6.10
2019-06-07T19:50:15.110Z,5.70
2019-06-07T19:52:43.542Z,7.07
2019-06-07T19:55:12.505Z,6.77
2019-06-07T19:57:40.923Z,7.37
2019-06-07T20:00:14.723Z,4.90
2019-06-07T20:02:41.460Z,5.83
2019-06-07T20:05:14.889Z,7.07
2019-06-07T20:07:43.515Z,7.00
2019-06-07T20:10:13.914Z,5.00
2019-06-07T20:12:42.326Z,7.03
2019-06-07T20:15:27.910Z,4.87
2019-06-07T20:17:41.567Z,6.80
2019-06-07T20:20:10.898Z,5.30
2019-06-07T20:22:39.437Z,7.13
2019-06-07T20:25:09.275Z,6.30
2019-06-07T20:27:37.770Z,6.87
2019-06-07T20:30:11.205Z,6.93
2019-06-07T20:32:39.619Z,17.73
2019-06-07T20:35:08.476Z,20.33
2019-06-07T20:37:36.958Z,7.43
2019-06-07T20:40:19.529Z,5.73
2019-06-07T20:42:37.324Z,6.83
2019-06-07T20:45:08.220Z,6.00
2019-06-07T20:47:36.782Z,5.27
2019-06-07T20:50:09.327Z,7.83
2019-06-07T20:52:38.524Z,10.17
2019-06-07T20:55:09.469Z,11.00
2019-06-07T20:57:38.182Z,8.50
2019-06-07T21:00:20.596Z,6.37
2019-06-07T21:02:40.843Z,8.20
2019-06-07T21:05:10.108Z,10.17
2019-06-07T21:07:38.780Z,6.77
2019-06-07T21:10:10.880Z,9.47
2019-06-07T21:12:39.413Z,13.77
2019-06-07T21:15:12.102Z,8.37
2019-06-07T21:17:38.442Z,9.07
2019-06-07T21:20:13.541Z,11.17
2019-06-07T21:22:38.437Z,7.13
2019-06-07T21:25:09.236Z,5.17
2019-06-07T21:27:37.793Z,9.23
2019-06-07T21:30:11.388Z,6.23
2019-06-07T21:32:40.043Z,5.93
2019-06-07T21:35:10.156Z,7.07
2019-06-07T21:37:38.793Z,7.27
2019-06-07T21:40:08.495Z,9.33
2019-06-07T21:42:36.999Z,10.23
2019-06-07T21:45:09.909Z,7.73
2019-06-07T21:47:38.692Z,6.70
2019-06-07T21:50:08.693Z,6.30
2019-06-07T21:52:37.453Z,6.20
2019-06-07T21:55:07.304Z,6.40
2019-06-07T21:57:36.253Z,8.43
2019-06-07T22:00:23.110Z,5.93
2019-06-07T22:02:51.672Z,5.70
2019-06-07T22:05:20.066Z,5.33
2019-06-07T22:07:48.676Z,5.60
2019-06-07T22:10:17.414Z,6.03
2019-06-07T22:12:45.818Z,6.90
2019-06-07T22:15:32.189Z,6.83
2019-06-07T22:17:44.521Z,5.40
2019-06-07T22:20:13.083Z,9.73
2019-06-07T22:22:41.524Z,8.53
2019-06-07T22:25:11.048Z,10.33
2019-06-07T22:27:39.552Z,16.67
2019-06-07T22:30:08.791Z,6.83
2019-06-07T22:32:37.219Z,5.03
2019-06-07T22:35:08.945Z,5.03
2019-06-07T22:37:37.617Z,4.97
2019-06-07T22:40:08.603Z,10.23
2019-06-07T22:42:37.516Z,8.13
2019-06-07T22:45:07.948Z,6.60
2019-06-07T22:47:36.695Z,11.23
2019-06-07T22:50:08.563Z,7.13
2019-06-07T22:52:37.169Z,10.03
2019-06-07T22:55:07.787Z,5.47
2019-06-07T22:57:55.813Z,2.43
2019-06-07T23:00:25.431Z,8.50
2019-06-07T23:02:53.829Z,6.23
2019-06-07T23:05:22.358Z,4.20
2019-06-07T23:07:50.754Z,4.30
2019-06-07T23:10:19.668Z,4.07
2019-06-07T23:12:48.321Z,3.20
2019-06-07T23:15:20.630Z,1.83
2019-06-07T23:17:48.627Z,7.60
2019-06-07T23:20:18.031Z,2.40
2019-06-07T23:22:46.472Z,6.70
2019-06-07T23:25:21.869Z,3.57
2019-06-07T23:27:46.442Z,2.00
2019-06-07T23:30:16.514Z,7.40
2019-06-07T23:32:45.147Z,3.00
2019-06-07T23:35:14.878Z,8.67
2019-06-07T23:37:43.434Z,2.57
2019-06-07T23:40:13.438Z,5.60
2019-06-07T23:42:42.034Z,2.40
2019-06-07T23:45:12.072Z,2.70
2019-06-07T23:47:40.791Z,3.03
2019-06-07T23:50:09.462Z,6.73
2019-06-07T23:52:37.862Z,3.70
2019-06-07T23:55:08.196Z,4.77
2019-06-07T23:57:36.670Z,3.87
